Naxera, Virginia
Current Conditions -  °F | °C
As of 3:35 PM on Tuesday 25 Nov 2014 (Local Time) from KW75 Reporting Station
Broken Clouds Broken Clouds  
Wind Chill: 54°   Ceiling: 7000
Heat Index: 54°   Visibility: 10mi
Dew Point: 39°   Wind: 3mph
Humidity: 57%   Direction: 50°NE
Pressure: 30.06"   Gusts: NA
Location:  37.4386°N, 76.5499°W
Report Text: KW75 252035Z AUTO 05003KT 10SM SCT031 SCT035 BKN070 12/04 A3006 RMK AO1 T01220040
Loading
Personal Weather Stations






























Interactive Weather Map New forecast layout! Learn more

10-Day Weather Forecast

Advertisements
Track Severe Weather on mobile